sensor_id;sensor_type;location;lat;lon;timestamp;P1;durP1;ratioP1;P2;durP2;ratioP2
8556;SDS011;4316;53.840;10.762;2023-04-25T00:01:03;6.73;;;3.83;;
8556;SDS011;4316;53.840;10.762;2023-04-25T00:03:30;7.47;;;3.57;;
8556;SDS011;4316;53.840;10.762;2023-04-25T00:05:56;4.93;;;3.17;;
8556;SDS011;4316;53.840;10.762;2023-04-25T00:08:26;3.67;;;2.90;;
8556;SDS011;4316;53.840;10.762;2023-04-25T00:10:53;4.50;;;3.23;;
8556;SDS011;4316;53.840;10.762;2023-04-25T00:13:18;6.80;;;3.10;;
8556;SDS011;4316;53.840;10.762;2023-04-25T00:15:45;9.20;;;3.20;;
8556;SDS011;4316;53.840;10.762;2023-04-25T00:18:11;7.27;;;3.43;;
8556;SDS011;4316;53.840;10.762;2023-04-25T00:20:37;6.00;;;3.33;;
8556;SDS011;4316;53.840;10.762;2023-04-25T00:23:02;6.97;;;3.60;;
8556;SDS011;4316;53.840;10.762;2023-04-25T00:25:28;9.37;;;3.43;;
8556;SDS011;4316;53.840;10.762;2023-04-25T00:27:54;6.23;;;3.47;;
8556;SDS011;4316;53.840;10.762;2023-04-25T00:30:20;5.83;;;3.23;;
8556;SDS011;4316;53.840;10.762;2023-04-25T00:32:45;11.00;;;3.87;;
8556;SDS011;4316;53.840;10.762;2023-04-25T00:35:12;9.07;;;4.20;;
8556;SDS011;4316;53.840;10.762;2023-04-25T00:37:38;9.03;;;4.40;;
8556;SDS011;4316;53.840;10.762;2023-04-25T00:40:07;14.50;;;4.30;;
8556;SDS011;4316;53.840;10.762;2023-04-25T00:42:33;9.63;;;4.30;;
8556;SDS011;4316;53.840;10.762;2023-04-25T00:45:00;10.67;;;4.40;;
8556;SDS011;4316;53.840;10.762;2023-04-25T00:47:26;8.47;;;4.07;;
8556;SDS011;4316;53.840;10.762;2023-04-25T00:49:53;10.00;;;3.90;;
8556;SDS011;4316;53.840;10.762;2023-04-25T00:52:19;9.40;;;3.73;;
8556;SDS011;4316;53.840;10.762;2023-04-25T00:54:45;11.27;;;3.83;;
8556;SDS011;4316;53.840;10.762;2023-04-25T00:57:11;11.73;;;3.70;;
8556;SDS011;4316;53.840;10.762;2023-04-25T00:59:37;11.17;;;4.00;;
8556;SDS011;4316;53.840;10.762;2023-04-25T01:02:04;18.67;;;4.53;;
8556;SDS011;4316;53.840;10.762;2023-04-25T01:04:30;18.20;;;3.67;;
8556;SDS011;4316;53.840;10.762;2023-04-25T01:06:55;13.40;;;4.17;;
8556;SDS011;4316;53.840;10.762;2023-04-25T01:09:22;14.90;;;4.47;;
8556;SDS011;4316;53.840;10.762;2023-04-25T01:11:48;20.13;;;4.10;;
8556;SDS011;4316;53.840;10.762;2023-04-25T01:14:14;12.97;;;3.93;;
8556;SDS011;4316;53.840;10.762;2023-04-25T01:16:39;27.63;;;4.27;;
8556;SDS011;4316;53.840;10.762;2023-04-25T01:19:08;21.40;;;4.63;;
8556;SDS011;4316;53.840;10.762;2023-04-25T01:21:37;19.27;;;3.93;;
8556;SDS011;4316;53.840;10.762;2023-04-25T01:24:03;21.37;;;4.90;;
8556;SDS011;4316;53.840;10.762;2023-04-25T01:26:30;17.67;;;4.40;;
8556;SDS011;4316;53.840;10.762;2023-04-25T01:28:56;16.17;;;4.63;;
8556;SDS011;4316;53.840;10.762;2023-04-25T01:31:22;19.83;;;4.53;;
8556;SDS011;4316;53.840;10.762;2023-04-25T01:33:49;17.87;;;4.80;;
8556;SDS011;4316;53.840;10.762;2023-04-25T01:36:14;24.27;;;4.93;;
8556;SDS011;4316;53.840;10.762;2023-04-25T01:38:40;21.63;;;4.67;;
8556;SDS011;4316;53.840;10.762;2023-04-25T01:41:07;20.40;;;4.87;;
8556;SDS011;4316;53.840;10.762;2023-04-25T01:43:32;19.23;;;4.00;;
8556;SDS011;4316;53.840;10.762;2023-04-25T01:45:59;18.70;;;4.60;;
8556;SDS011;4316;53.840;10.762;2023-04-25T01:48:24;22.13;;;3.77;;
8556;SDS011;4316;53.840;10.762;2023-04-25T01:50:50;19.73;;;4.37;;
8556;SDS011;4316;53.840;10.762;2023-04-25T01:53:16;19.80;;;4.77;;
8556;SDS011;4316;53.840;10.762;2023-04-25T01:55:43;18.60;;;4.80;;
8556;SDS011;4316;53.840;10.762;2023-04-25T01:58:13;15.17;;;3.87;;
8556;SDS011;4316;53.840;10.762;2023-04-25T02:00:57;24.80;;;5.43;;
8556;SDS011;4316;53.840;10.762;2023-04-25T02:03:27;24.07;;;4.60;;
8556;SDS011;4316;53.840;10.762;2023-04-25T02:05:53;15.60;;;4.07;;
8556;SDS011;4316;53.840;10.762;2023-04-25T02:08:19;18.23;;;4.23;;
8556;SDS011;4316;53.840;10.762;2023-04-25T02:10:45;16.90;;;5.03;;
8556;SDS011;4316;53.840;10.762;2023-04-25T02:13:17;23.40;;;4.87;;
8556;SDS011;4316;53.840;10.762;2023-04-25T02:15:57;17.27;;;5.13;;
8556;SDS011;4316;53.840;10.762;2023-04-25T02:18:22;18.57;;;4.13;;
8556;SDS011;4316;53.840;10.762;2023-04-25T02:20:48;23.33;;;5.43;;
8556;SDS011;4316;53.840;10.762;2023-04-25T02:23:13;23.27;;;4.67;;
8556;SDS011;4316;53.840;10.762;2023-04-25T02:25:40;25.80;;;5.50;;
8556;SDS011;4316;53.840;10.762;2023-04-25T02:28:06;18.20;;;4.23;;
8556;SDS011;4316;53.840;10.762;2023-04-25T02:30:32;19.13;;;5.13;;
8556;SDS011;4316;53.840;10.762;2023-04-25T02:32:58;21.57;;;4.87;;
8556;SDS011;4316;53.840;10.762;2023-04-25T02:35:23;24.57;;;5.27;;
8556;SDS011;4316;53.840;10.762;2023-04-25T02:37:51;19.67;;;4.30;;
8556;SDS011;4316;53.840;10.762;2023-04-25T02:40:17;20.17;;;4.53;;
8556;SDS011;4316;53.840;10.762;2023-04-25T02:42:43;21.70;;;4.57;;
8556;SDS011;4316;53.840;10.762;2023-04-25T02:45:10;19.00;;;4.40;;
8556;SDS011;4316;53.840;10.762;2023-04-25T02:47:36;18.73;;;5.00;;
8556;SDS011;4316;53.840;10.762;2023-04-25T02:50:02;24.20;;;5.30;;
8556;SDS011;4316;53.840;10.762;2023-04-25T02:52:28;31.57;;;5.47;;
8556;SDS011;4316;53.840;10.762;2023-04-25T02:55:02;18.73;;;4.77;;
8556;SDS011;4316;53.840;10.762;2023-04-25T02:57:29;16.13;;;3.90;;
8556;SDS011;4316;53.840;10.762;2023-04-25T02:59:55;24.10;;;5.90;;
8556;SDS011;4316;53.840;10.762;2023-04-25T03:02:20;17.90;;;4.90;;
8556;SDS011;4316;53.840;10.762;2023-04-25T03:04:46;29.37;;;5.73;;
8556;SDS011;4316;53.840;10.762;2023-04-25T03:07:13;16.00;;;4.17;;
8556;SDS011;4316;53.840;10.762;2023-04-25T03:09:38;20.00;;;5.03;;
8556;SDS011;4316;53.840;10.762;2023-04-25T03:12:04;18.57;;;4.43;;
8556;SDS011;4316;53.840;10.762;2023-04-25T03:14:32;17.90;;;4.37;;
8556;SDS011;4316;53.840;10.762;2023-04-25T03:16:58;24.77;;;5.47;;
8556;SDS011;4316;53.840;10.762;2023-04-25T03:19:23;28.40;;;5.10;;
8556;SDS011;4316;53.840;10.762;2023-04-25T03:21:49;21.00;;;5.13;;
8556;SDS011;4316;53.840;10.762;2023-04-25T03:24:14;23.37;;;5.73;;
8556;SDS011;4316;53.840;10.762;2023-04-25T03:26:40;19.80;;;5.73;;
8556;SDS011;4316;53.840;10.762;2023-04-25T03:29:08;23.40;;;4.73;;
8556;SDS011;4316;53.840;10.762;2023-04-25T03:31:34;18.70;;;4.63;;
8556;SDS011;4316;53.840;10.762;2023-04-25T03:34:00;13.67;;;4.17;;
8556;SDS011;4316;53.840;10.762;2023-04-25T03:36:26;31.53;;;6.13;;
8556;SDS011;4316;53.840;10.762;2023-04-25T03:38:51;21.40;;;5.40;;
8556;SDS011;4316;53.840;10.762;2023-04-25T03:41:19;27.63;;;5.80;;
8556;SDS011;4316;53.840;10.762;2023-04-25T03:43:50;26.87;;;5.90;;
8556;SDS011;4316;53.840;10.762;2023-04-25T03:46:16;27.10;;;5.37;;
8556;SDS011;4316;53.840;10.762;2023-04-25T03:48:42;24.87;;;5.00;;
8556;SDS011;4316;53.840;10.762;2023-04-25T03:51:10;19.10;;;4.13;;
8556;SDS011;4316;53.840;10.762;2023-04-25T03:53:40;23.40;;;5.73;;
8556;SDS011;4316;53.840;10.762;2023-04-25T03:56:14;19.70;;;4.57;;
8556;SDS011;4316;53.840;10.762;2023-04-25T03:58:40;21.23;;;4.20;;
8556;SDS011;4316;53.840;10.762;2023-04-25T04:01:06;16.13;;;4.23;;
8556;SDS011;4316;53.840;10.762;2023-04-25T04:03:34;22.63;;;4.43;;
8556;SDS011;4316;53.840;10.762;2023-04-25T04:06:01;26.00;;;4.57;;
8556;SDS011;4316;53.840;10.762;2023-04-25T04:08:29;26.87;;;5.40;;
8556;SDS011;4316;53.840;10.762;2023-04-25T04:10:55;21.30;;;5.33;;
8556;SDS011;4316;53.840;10.762;2023-04-25T04:13:21;28.67;;;5.47;;
8556;SDS011;4316;53.840;10.762;2023-04-25T04:15:47;26.53;;;5.80;;
8556;SDS011;4316;53.840;10.762;2023-04-25T04:18:13;30.03;;;5.93;;
8556;SDS011;4316;53.840;10.762;2023-04-25T04:20:38;22.13;;;4.83;;
8556;SDS011;4316;53.840;10.762;2023-04-25T04:23:05;21.37;;;4.87;;
8556;SDS011;4316;53.840;10.762;2023-04-25T04:25:31;26.53;;;6.13;;
8556;SDS011;4316;53.840;10.762;2023-04-25T04:28:06;16.43;;;4.37;;
8556;SDS011;4316;53.840;10.762;2023-04-25T04:30:39;22.77;;;5.50;;
8556;SDS011;4316;53.840;10.762;2023-04-25T04:33:07;25.60;;;5.37;;
8556;SDS011;4316;53.840;10.762;2023-04-25T04:35:33;16.07;;;4.37;;
8556;SDS011;4316;53.840;10.762;2023-04-25T04:37:59;22.97;;;5.60;;
8556;SDS011;4316;53.840;10.762;2023-04-25T04:40:28;23.37;;;4.80;;
8556;SDS011;4316;53.840;10.762;2023-04-25T04:43:22;20.70;;;4.40;;
8556;SDS011;4316;53.840;10.762;2023-04-25T04:46:06;26.00;;;5.63;;
8556;SDS011;4316;53.840;10.762;2023-04-25T04:48:40;22.43;;;4.73;;
8556;SDS011;4316;53.840;10.762;2023-04-25T04:51:32;17.43;;;4.73;;
8556;SDS011;4316;53.840;10.762;2023-04-25T04:54:21;20.93;;;4.97;;
8556;SDS011;4316;53.840;10.762;2023-04-25T04:57:03;20.17;;;5.40;;
8556;SDS011;4316;53.840;10.762;2023-04-25T04:59:42;20.93;;;4.37;;
8556;SDS011;4316;53.840;10.762;2023-04-25T05:02:26;19.87;;;4.70;;
8556;SDS011;4316;53.840;10.762;2023-04-25T05:05:12;20.00;;;3.87;;
8556;SDS011;4316;53.840;10.762;2023-04-25T05:07:56;20.47;;;4.43;;
8556;SDS011;4316;53.840;10.762;2023-04-25T05:10:40;20.73;;;4.83;;
8556;SDS011;4316;53.840;10.762;2023-04-25T05:13:18;22.53;;;4.10;;
8556;SDS011;4316;53.840;10.762;2023-04-25T05:16:07;18.23;;;4.77;;
8556;SDS011;4316;53.840;10.762;2023-04-25T05:18:56;18.87;;;4.87;;
8556;SDS011;4316;53.840;10.762;2023-04-25T05:21:51;30.03;;;5.40;;
8556;SDS011;4316;53.840;10.762;2023-04-25T05:24:30;26.37;;;4.23;;
8556;SDS011;4316;53.840;10.762;2023-04-25T05:27:21;28.17;;;5.43;;
8556;SDS011;4316;53.840;10.762;2023-04-25T05:30:05;18.60;;;4.60;;
8556;SDS011;4316;53.840;10.762;2023-04-25T05:32:40;18.17;;;4.30;;
8556;SDS011;4316;53.840;10.762;2023-04-25T05:35:06;18.93;;;4.50;;
8556;SDS011;4316;53.840;10.762;2023-04-25T05:37:39;19.60;;;4.73;;
8556;SDS011;4316;53.840;10.762;2023-04-25T05:40:10;24.57;;;4.63;;
8556;SDS011;4316;53.840;10.762;2023-04-25T05:42:52;21.93;;;4.70;;
8556;SDS011;4316;53.840;10.762;2023-04-25T05:45:36;20.37;;;4.53;;
8556;SDS011;4316;53.840;10.762;2023-04-25T05:48:07;25.07;;;5.50;;
8556;SDS011;4316;53.840;10.762;2023-04-25T05:51:02;9.17;;;2.93;;
8556;SDS011;4316;53.840;10.762;2023-04-25T05:53:54;25.97;;;4.23;;
8556;SDS011;4316;53.840;10.762;2023-04-25T05:56:20;19.20;;;4.30;;
8556;SDS011;4316;53.840;10.762;2023-04-25T05:58:48;22.90;;;4.80;;
8556;SDS011;4316;53.840;10.762;2023-04-25T06:01:14;15.00;;;4.50;;
8556;SDS011;4316;53.840;10.762;2023-04-25T06:03:41;21.27;;;3.83;;
8556;SDS011;4316;53.840;10.762;2023-04-25T06:06:11;15.50;;;3.83;;
8556;SDS011;4316;53.840;10.762;2023-04-25T06:08:36;16.83;;;4.13;;
8556;SDS011;4316;53.840;10.762;2023-04-25T06:11:03;27.53;;;5.00;;
8556;SDS011;4316;53.840;10.762;2023-04-25T06:13:29;22.77;;;4.47;;
8556;SDS011;4316;53.840;10.762;2023-04-25T06:15:55;17.47;;;4.33;;
8556;SDS011;4316;53.840;10.762;2023-04-25T06:18:21;16.27;;;3.70;;
8556;SDS011;4316;53.840;10.762;2023-04-25T06:20:46;15.33;;;4.47;;
8556;SDS011;4316;53.840;10.762;2023-04-25T06:23:12;17.13;;;4.67;;
8556;SDS011;4316;53.840;10.762;2023-04-25T06:25:49;21.50;;;4.47;;
8556;SDS011;4316;53.840;10.762;2023-04-25T06:28:15;12.67;;;3.47;;
8556;SDS011;4316;53.840;10.762;2023-04-25T06:30:41;20.07;;;4.63;;
8556;SDS011;4316;53.840;10.762;2023-04-25T06:33:11;15.10;;;3.60;;
8556;SDS011;4316;53.840;10.762;2023-04-25T06:35:38;18.80;;;4.60;;
8556;SDS011;4316;53.840;10.762;2023-04-25T06:38:05;11.53;;;3.93;;
8556;SDS011;4316;53.840;10.762;2023-04-25T06:40:31;20.10;;;4.77;;
8556;SDS011;4316;53.840;10.762;2023-04-25T06:42:57;18.00;;;3.83;;
8556;SDS011;4316;53.840;10.762;2023-04-25T06:45:43;16.13;;;3.47;;
8556;SDS011;4316;53.840;10.762;2023-04-25T06:48:09;17.53;;;3.47;;
8556;SDS011;4316;53.840;10.762;2023-04-25T06:50:34;14.53;;;3.37;;
8556;SDS011;4316;53.840;10.762;2023-04-25T06:53:00;15.77;;;3.23;;
8556;SDS011;4316;53.840;10.762;2023-04-25T06:55:28;15.90;;;3.67;;
8556;SDS011;4316;53.840;10.762;2023-04-25T06:58:11;13.43;;;3.23;;
8556;SDS011;4316;53.840;10.762;2023-04-25T07:00:55;11.50;;;3.10;;
8556;SDS011;4316;53.840;10.762;2023-04-25T07:03:23;16.17;;;3.33;;
8556;SDS011;4316;53.840;10.762;2023-04-25T07:05:51;20.83;;;4.57;;
8556;SDS011;4316;53.840;10.762;2023-04-25T07:08:17;17.50;;;3.70;;
8556;SDS011;4316;53.840;10.762;2023-04-25T07:10:42;15.97;;;3.60;;
8556;SDS011;4316;53.840;10.762;2023-04-25T07:13:08;9.33;;;2.73;;
8556;SDS011;4316;53.840;10.762;2023-04-25T07:15:34;12.43;;;3.17;;
8556;SDS011;4316;53.840;10.762;2023-04-25T07:18:00;11.33;;;3.43;;
8556;SDS011;4316;53.840;10.762;2023-04-25T07:20:26;15.80;;;3.57;;
8556;SDS011;4316;53.840;10.762;2023-04-25T07:22:52;18.30;;;3.47;;
8556;SDS011;4316;53.840;10.762;2023-04-25T07:25:18;12.93;;;3.47;;
8556;SDS011;4316;53.840;10.762;2023-04-25T07:27:44;15.63;;;3.70;;
8556;SDS011;4316;53.840;10.762;2023-04-25T07:30:16;18.93;;;3.77;;
8556;SDS011;4316;53.840;10.762;2023-04-25T07:32:41;17.73;;;4.37;;
8556;SDS011;4316;53.840;10.762;2023-04-25T07:35:07;12.37;;;3.10;;
8556;SDS011;4316;53.840;10.762;2023-04-25T07:37:33;18.27;;;4.10;;
8556;SDS011;4316;53.840;10.762;2023-04-25T07:40:09;12.53;;;2.87;;
8556;SDS011;4316;53.840;10.762;2023-04-25T07:42:39;12.43;;;3.40;;
8556;SDS011;4316;53.840;10.762;2023-04-25T07:45:05;15.20;;;3.33;;
8556;SDS011;4316;53.840;10.762;2023-04-25T07:47:31;16.47;;;4.47;;
8556;SDS011;4316;53.840;10.762;2023-04-25T07:49:57;12.47;;;3.43;;
8556;SDS011;4316;53.840;10.762;2023-04-25T07:52:23;13.70;;;3.50;;
8556;SDS011;4316;53.840;10.762;2023-04-25T07:54:55;12.17;;;3.13;;
8556;SDS011;4316;53.840;10.762;2023-04-25T07:57:27;21.43;;;3.87;;
8556;SDS011;4316;53.840;10.762;2023-04-25T07:59:55;15.13;;;3.63;;
8556;SDS011;4316;53.840;10.762;2023-04-25T08:02:21;14.13;;;4.90;;
8556;SDS011;4316;53.840;10.762;2023-04-25T08:04:47;16.27;;;3.63;;
8556;SDS011;4316;53.840;10.762;2023-04-25T08:07:16;14.90;;;3.57;;
8556;SDS011;4316;53.840;10.762;2023-04-25T08:09:49;14.70;;;3.33;;
8556;SDS011;4316;53.840;10.762;2023-04-25T08:12:33;10.07;;;3.27;;
8556;SDS011;4316;53.840;10.762;2023-04-25T08:14:59;22.03;;;4.27;;
8556;SDS011;4316;53.840;10.762;2023-04-25T08:17:29;14.43;;;4.17;;
8556;SDS011;4316;53.840;10.762;2023-04-25T08:19:55;21.47;;;3.70;;
8556;SDS011;4316;53.840;10.762;2023-04-25T08:22:25;13.47;;;4.27;;
8556;SDS011;4316;53.840;10.762;2023-04-25T08:25:01;9.63;;;2.77;;
8556;SDS011;4316;53.840;10.762;2023-04-25T08:27:27;21.17;;;3.50;;
8556;SDS011;4316;53.840;10.762;2023-04-25T08:29:53;8.17;;;3.13;;
8556;SDS011;4316;53.840;10.762;2023-04-25T08:32:19;24.63;;;2.83;;
8556;SDS011;4316;53.840;10.762;2023-04-25T08:35:01;10.97;;;3.50;;
8556;SDS011;4316;53.840;10.762;2023-04-25T08:37:26;10.23;;;3.47;;
8556;SDS011;4316;53.840;10.762;2023-04-25T08:39:56;13.37;;;3.00;;
8556;SDS011;4316;53.840;10.762;2023-04-25T08:42:33;12.60;;;3.27;;
8556;SDS011;4316;53.840;10.762;2023-04-25T08:45:01;14.40;;;3.50;;
8556;SDS011;4316;53.840;10.762;2023-04-25T08:47:32;12.07;;;2.40;;
8556;SDS011;4316;53.840;10.762;2023-04-25T08:49:59;14.90;;;2.93;;
8556;SDS011;4316;53.840;10.762;2023-04-25T08:52:27;12.07;;;2.80;;
8556;SDS011;4316;53.840;10.762;2023-04-25T08:54:57;13.30;;;3.33;;
8556;SDS011;4316;53.840;10.762;2023-04-25T08:57:27;7.47;;;2.77;;
8556;SDS011;4316;53.840;10.762;2023-04-25T08:59:55;14.83;;;3.30;;
8556;SDS011;4316;53.840;10.762;2023-04-25T09:02:22;14.90;;;2.70;;
8556;SDS011;4316;53.840;10.762;2023-04-25T09:04:50;9.20;;;3.03;;
8556;SDS011;4316;53.840;10.762;2023-04-25T09:07:16;10.93;;;3.60;;
8556;SDS011;4316;53.840;10.762;2023-04-25T09:09:46;14.80;;;3.40;;
8556;SDS011;4316;53.840;10.762;2023-04-25T09:12:15;14.53;;;4.07;;
8556;SDS011;4316;53.840;10.762;2023-04-25T09:14:43;10.97;;;3.03;;
8556;SDS011;4316;53.840;10.762;2023-04-25T09:17:41;12.67;;;3.50;;
8556;SDS011;4316;53.840;10.762;2023-04-25T09:20:13;12.13;;;2.70;;
8556;SDS011;4316;53.840;10.762;2023-04-25T09:22:40;12.47;;;3.67;;
8556;SDS011;4316;53.840;10.762;2023-04-25T09:25:11;11.13;;;3.27;;
8556;SDS011;4316;53.840;10.762;2023-04-25T09:27:50;19.40;;;2.97;;
8556;SDS011;4316;53.840;10.762;2023-04-25T09:30:30;16.17;;;3.60;;
8556;SDS011;4316;53.840;10.762;2023-04-25T09:33:04;13.83;;;3.27;;
8556;SDS011;4316;53.840;10.762;2023-04-25T09:35:34;8.00;;;2.57;;
8556;SDS011;4316;53.840;10.762;2023-04-25T09:38:39;14.40;;;3.00;;
8556;SDS011;4316;53.840;10.762;2023-04-25T09:41:15;15.37;;;3.10;;
8556;SDS011;4316;53.840;10.762;2023-04-25T09:43:48;13.50;;;2.80;;
8556;SDS011;4316;53.840;10.762;2023-04-25T09:46:15;11.90;;;3.10;;
8556;SDS011;4316;53.840;10.762;2023-04-25T09:48:50;12.37;;;2.30;;
8556;SDS011;4316;53.840;10.762;2023-04-25T09:51:25;12.57;;;3.17;;
8556;SDS011;4316;53.840;10.762;2023-04-25T09:53:52;9.40;;;2.87;;
8556;SDS011;4316;53.840;10.762;2023-04-25T09:56:40;6.77;;;2.60;;
8556;SDS011;4316;53.840;10.762;2023-04-25T09:59:06;13.93;;;3.00;;
8556;SDS011;4316;53.840;10.762;2023-04-25T10:01:35;14.77;;;2.83;;
8556;SDS011;4316;53.840;10.762;2023-04-25T10:04:10;13.20;;;3.17;;
8556;SDS011;4316;53.840;10.762;2023-04-25T10:07:06;9.57;;;2.50;;
8556;SDS011;4316;53.840;10.762;2023-04-25T10:09:33;9.30;;;2.47;;
8556;SDS011;4316;53.840;10.762;2023-04-25T10:12:02;5.53;;;2.40;;
8556;SDS011;4316;53.840;10.762;2023-04-25T10:14:31;12.37;;;2.80;;
8556;SDS011;4316;53.840;10.762;2023-04-25T10:16:58;9.70;;;2.60;;
8556;SDS011;4316;53.840;10.762;2023-04-25T10:19:25;5.77;;;2.43;;
8556;SDS011;4316;53.840;10.762;2023-04-25T10:22:11;11.67;;;3.13;;
8556;SDS011;4316;53.840;10.762;2023-04-25T10:24:58;10.13;;;2.60;;
8556;SDS011;4316;53.840;10.762;2023-04-25T10:27:27;8.20;;;2.37;;
8556;SDS011;4316;53.840;10.762;2023-04-25T10:32:39;14.33;;;1.90;;
8556;SDS011;4316;53.840;10.762;2023-04-25T10:35:10;8.63;;;2.30;;
8556;SDS011;4316;53.840;10.762;2023-04-25T10:37:37;6.93;;;2.07;;
8556;SDS011;4316;53.840;10.762;2023-04-25T10:40:09;6.47;;;1.93;;
8556;SDS011;4316;53.840;10.762;2023-04-25T10:42:35;11.63;;;2.80;;
8556;SDS011;4316;53.840;10.762;2023-04-25T10:45:01;9.37;;;2.43;;
8556;SDS011;4316;53.840;10.762;2023-04-25T10:47:36;10.30;;;2.30;;
8556;SDS011;4316;53.840;10.762;2023-04-25T10:50:09;7.33;;;2.20;;
8556;SDS011;4316;53.840;10.762;2023-04-25T10:52:36;6.03;;;2.33;;
8556;SDS011;4316;53.840;10.762;2023-04-25T10:55:04;6.23;;;1.80;;
8556;SDS011;4316;53.840;10.762;2023-04-25T10:57:37;7.37;;;2.33;;
8556;SDS011;4316;53.840;10.762;2023-04-25T11:00:18;12.33;;;1.50;;
8556;SDS011;4316;53.840;10.762;2023-04-25T11:02:51;11.07;;;2.17;;
8556;SDS011;4316;53.840;10.762;2023-04-25T11:05:20;6.07;;;1.93;;
8556;SDS011;4316;53.840;10.762;2023-04-25T11:07:55;6.30;;;2.13;;
8556;SDS011;4316;53.840;10.762;2023-04-25T11:10:28;5.17;;;2.03;;
8556;SDS011;4316;53.840;10.762;2023-04-25T11:12:55;7.17;;;2.37;;
8556;SDS011;4316;53.840;10.762;2023-04-25T11:15:21;7.33;;;2.13;;
8556;SDS011;4316;53.840;10.762;2023-04-25T11:17:47;13.17;;;2.70;;
8556;SDS011;4316;53.840;10.762;2023-04-25T11:20:12;5.97;;;2.77;;
8556;SDS011;4316;53.840;10.762;2023-04-25T11:22:39;8.47;;;2.40;;
8556;SDS011;4316;53.840;10.762;2023-04-25T11:25:08;10.33;;;2.43;;
8556;SDS011;4316;53.840;10.762;2023-04-25T11:27:37;8.80;;;2.20;;
8556;SDS011;4316;53.840;10.762;2023-04-25T11:30:14;8.07;;;2.20;;
8556;SDS011;4316;53.840;10.762;2023-04-25T11:32:40;10.93;;;2.53;;
8556;SDS011;4316;53.840;10.762;2023-04-25T11:35:07;7.63;;;2.60;;
8556;SDS011;4316;53.840;10.762;2023-04-25T11:37:33;5.27;;;1.97;;
8556;SDS011;4316;53.840;10.762;2023-04-25T11:39:59;3.73;;;2.20;;
8556;SDS011;4316;53.840;10.762;2023-04-25T11:42:25;5.97;;;2.47;;
8556;SDS011;4316;53.840;10.762;2023-04-25T11:44:51;13.47;;;2.37;;
8556;SDS011;4316;53.840;10.762;2023-04-25T11:47:17;7.90;;;2.13;;
8556;SDS011;4316;53.840;10.762;2023-04-25T11:49:42;9.97;;;2.63;;
8556;SDS011;4316;53.840;10.762;2023-04-25T11:52:08;5.10;;;1.67;;
8556;SDS011;4316;53.840;10.762;2023-04-25T11:54:37;11.97;;;1.73;;
8556;SDS011;4316;53.840;10.762;2023-04-25T11:57:03;5.87;;;1.93;;
8556;SDS011;4316;53.840;10.762;2023-04-25T11:59:29;8.07;;;1.70;;
8556;SDS011;4316;53.840;10.762;2023-04-25T12:01:55;6.33;;;1.90;;
8556;SDS011;4316;53.840;10.762;2023-04-25T12:04:23;12.83;;;1.77;;
8556;SDS011;4316;53.840;10.762;2023-04-25T12:06:50;8.87;;;1.83;;
8556;SDS011;4316;53.840;10.762;2023-04-25T12:09:17;7.63;;;2.43;;
8556;SDS011;4316;53.840;10.762;2023-04-25T12:11:53;4.93;;;1.63;;
8556;SDS011;4316;53.840;10.762;2023-04-25T12:16:52;6.93;;;1.90;;
8556;SDS011;4316;53.840;10.762;2023-04-25T12:19:21;8.20;;;1.77;;
8556;SDS011;4316;53.840;10.762;2023-04-25T12:21:47;3.87;;;1.47;;
8556;SDS011;4316;53.840;10.762;2023-04-25T12:24:14;5.80;;;2.00;;
8556;SDS011;4316;53.840;10.762;2023-04-25T12:26:46;7.07;;;2.30;;
8556;SDS011;4316;53.840;10.762;2023-04-25T12:29:22;5.80;;;1.67;;
8556;SDS011;4316;53.840;10.762;2023-04-25T12:31:50;5.30;;;2.20;;
8556;SDS011;4316;53.840;10.762;2023-04-25T12:34:17;4.00;;;1.80;;
8556;SDS011;4316;53.840;10.762;2023-04-25T12:36:46;6.50;;;1.60;;
8556;SDS011;4316;53.840;10.762;2023-04-25T12:39:16;4.37;;;1.83;;
8556;SDS011;4316;53.840;10.762;2023-04-25T12:41:45;4.93;;;1.53;;
8556;SDS011;4316;53.840;10.762;2023-04-25T12:44:11;5.53;;;1.33;;
8556;SDS011;4316;53.840;10.762;2023-04-25T12:46:37;5.30;;;1.90;;
8556;SDS011;4316;53.840;10.762;2023-04-25T12:49:03;9.07;;;2.30;;
8556;SDS011;4316;53.840;10.762;2023-04-25T12:51:30;2.87;;;1.30;;
8556;SDS011;4316;53.840;10.762;2023-04-25T12:53:57;6.83;;;1.90;;
8556;SDS011;4316;53.840;10.762;2023-04-25T12:56:23;3.27;;;1.40;;
8556;SDS011;4316;53.840;10.762;2023-04-25T12:58:50;5.20;;;1.53;;
8556;SDS011;4316;53.840;10.762;2023-04-25T13:01:16;6.47;;;1.83;;
8556;SDS011;4316;53.840;10.762;2023-04-25T13:03:41;4.33;;;1.30;;
8556;SDS011;4316;53.840;10.762;2023-04-25T13:06:07;4.53;;;1.50;;
8556;SDS011;4316;53.840;10.762;2023-04-25T13:08:33;4.47;;;1.73;;
8556;SDS011;4316;53.840;10.762;2023-04-25T13:10:59;12.33;;;2.07;;
8556;SDS011;4316;53.840;10.762;2023-04-25T13:13:25;7.67;;;1.97;;
8556;SDS011;4316;53.840;10.762;2023-04-25T13:15:52;7.13;;;1.90;;
8556;SDS011;4316;53.840;10.762;2023-04-25T13:18:18;6.07;;;1.97;;
8556;SDS011;4316;53.840;10.762;2023-04-25T13:20:44;8.47;;;2.00;;
8556;SDS011;4316;53.840;10.762;2023-04-25T13:23:11;7.93;;;2.20;;
8556;SDS011;4316;53.840;10.762;2023-04-25T13:25:37;4.43;;;1.70;;
8556;SDS011;4316;53.840;10.762;2023-04-25T13:28:02;8.17;;;1.70;;
8556;SDS011;4316;53.840;10.762;2023-04-25T13:30:28;8.70;;;1.57;;
8556;SDS011;4316;53.840;10.762;2023-04-25T13:32:54;5.03;;;1.47;;
8556;SDS011;4316;53.840;10.762;2023-04-25T13:35:22;3.00;;;1.33;;
8556;SDS011;4316;53.840;10.762;2023-04-25T13:37:47;6.53;;;1.93;;
8556;SDS011;4316;53.840;10.762;2023-04-25T13:40:14;11.60;;;1.97;;
8556;SDS011;4316;53.840;10.762;2023-04-25T13:42:39;4.10;;;1.40;;
8556;SDS011;4316;53.840;10.762;2023-04-25T13:45:06;5.27;;;2.00;;
8556;SDS011;4316;53.840;10.762;2023-04-25T13:47:32;3.80;;;1.47;;
8556;SDS011;4316;53.840;10.762;2023-04-25T13:49:57;13.77;;;2.70;;
8556;SDS011;4316;53.840;10.762;2023-04-25T13:52:23;4.43;;;1.30;;
8556;SDS011;4316;53.840;10.762;2023-04-25T13:54:49;9.77;;;1.93;;
8556;SDS011;4316;53.840;10.762;2023-04-25T13:57:16;10.63;;;2.03;;
8556;SDS011;4316;53.840;10.762;2023-04-25T13:59:42;8.17;;;2.17;;
8556;SDS011;4316;53.840;10.762;2023-04-25T14:02:08;20.63;;;2.10;;
8556;SDS011;4316;53.840;10.762;2023-04-25T14:04:34;8.30;;;2.00;;
8556;SDS011;4316;53.840;10.762;2023-04-25T14:06:59;7.27;;;2.23;;
8556;SDS011;4316;53.840;10.762;2023-04-25T14:09:27;9.00;;;2.57;;
8556;SDS011;4316;53.840;10.762;2023-04-25T14:11:53;9.97;;;2.53;;
8556;SDS011;4316;53.840;10.762;2023-04-25T14:14:19;8.37;;;2.40;;
8556;SDS011;4316;53.840;10.762;2023-04-25T14:16:46;4.13;;;1.73;;
8556;SDS011;4316;53.840;10.762;2023-04-25T14:19:13;3.53;;;1.73;;
8556;SDS011;4316;53.840;10.762;2023-04-25T14:21:42;6.53;;;2.07;;
8556;SDS011;4316;53.840;10.762;2023-04-25T14:24:08;4.13;;;1.70;;
8556;SDS011;4316;53.840;10.762;2023-04-25T14:26:36;7.63;;;2.83;;
8556;SDS011;4316;53.840;10.762;2023-04-25T14:29:02;11.47;;;2.30;;
8556;SDS011;4316;53.840;10.762;2023-04-25T14:31:29;11.13;;;2.27;;
8556;SDS011;4316;53.840;10.762;2023-04-25T14:33:55;10.50;;;2.50;;
8556;SDS011;4316;53.840;10.762;2023-04-25T14:36:20;7.37;;;2.37;;
8556;SDS011;4316;53.840;10.762;2023-04-25T14:38:46;7.43;;;1.90;;
8556;SDS011;4316;53.840;10.762;2023-04-25T14:41:12;10.37;;;3.00;;
8556;SDS011;4316;53.840;10.762;2023-04-25T14:43:37;7.80;;;2.17;;
8556;SDS011;4316;53.840;10.762;2023-04-25T14:46:05;11.43;;;2.57;;
8556;SDS011;4316;53.840;10.762;2023-04-25T14:48:31;9.23;;;2.27;;
8556;SDS011;4316;53.840;10.762;2023-04-25T14:50:57;9.23;;;2.53;;
8556;SDS011;4316;53.840;10.762;2023-04-25T14:53:24;17.83;;;3.80;;
8556;SDS011;4316;53.840;10.762;2023-04-25T14:55:50;12.33;;;4.20;;
8556;SDS011;4316;53.840;10.762;2023-04-25T14:58:16;9.17;;;2.50;;
8556;SDS011;4316;53.840;10.762;2023-04-25T15:00:41;9.37;;;2.50;;
8556;SDS011;4316;53.840;10.762;2023-04-25T15:03:09;7.07;;;2.20;;
8556;SDS011;4316;53.840;10.762;2023-04-25T15:05:36;6.87;;;2.50;;
8556;SDS011;4316;53.840;10.762;2023-04-25T15:08:02;11.47;;;4.33;;
8556;SDS011;4316;53.840;10.762;2023-04-25T15:10:28;8.50;;;2.37;;